Celle Airport


Codes: ETHC/ZCN
Name: Celle Airport
City:
Country: Germany
Elevation: 129 ft.

Photos at Celle Airport


   Photos courtesy of SpottingLog. You can add your own sightings and photos by signing up for a free trial today.



No photos found.

Weather at Celle Airport


Time (UTC)DescriptionTempratureWindCloud coverageVisibilityPressureHumidity
13-Jun-2024 03:00Broken Clouds8°C7 mph, SW76%10000m1018hPa93%
13-Jun-2024 06:00Broken Clouds9°C9 mph, W58%10000m1018hPa83%
13-Jun-2024 09:00Light Rain14°C9 mph, W28%10000m1018hPa56%
13-Jun-2024 12:00Light Rain16°C9 mph, W60%10000m1017hPa53%
13-Jun-2024 15:00Overcast Clouds18°C7 mph, SW89%10000m1016hPa45%
13-Jun-2024 18:00Overcast Clouds15°C7 mph, S93%10000m1015hPa66%
13-Jun-2024 21:00Overcast Clouds12°C7 mph, SE100%10000m1015hPa72%
14-Jun-2024 00:00Overcast Clouds12°C7 mph, SE100%10000m1014hPa68%
14-Jun-2024 03:00Overcast Clouds12°C7 mph, S100%10000m1012hPa67%
14-Jun-2024 06:00Overcast Clouds14°C7 mph, S100%10000m1012hPa68%
14-Jun-2024 09:00Light Rain18°C11 mph, S100%10000m1012hPa57%
14-Jun-2024 12:00Light Rain19°C9 mph, SW99%10000m1011hPa61%
14-Jun-2024 15:00Light Rain18°C9 mph, SW90%10000m1011hPa63%
14-Jun-2024 18:00Light Rain17°C9 mph, S95%10000m1010hPa72%
14-Jun-2024 21:00Scattered Clouds13°C7 mph, S45%10000m1010hPa89%
15-Jun-2024 00:00Broken Clouds13°C9 mph, SE72%10000m1007hPa89%
15-Jun-2024 03:00Overcast Clouds12°C7 mph, SE85%10000m1005hPa91%
15-Jun-2024 06:00Moderate Rain14°C9 mph, SW92%4109m1004hPa97%
15-Jun-2024 09:00Moderate Rain15°C13 mph, S100%10000m1005hPa92%
15-Jun-2024 12:00Light Rain18°C13 mph, SW92%10000m1008hPa64%
15-Jun-2024 15:00Light Rain18°C11 mph, SW98%10000m1009hPa56%
15-Jun-2024 18:00Broken Clouds17°C7 mph, SW67%10000m1009hPa63%
15-Jun-2024 21:00Few Clouds12°C7 mph, S18%10000m1011hPa79%
16-Jun-2024 00:00Scattered Clouds11°C7 mph, S39%10000m1010hPa84%
16-Jun-2024 03:00Broken Clouds11°C7 mph, S66%10000m1010hPa79%
16-Jun-2024 06:00Broken Clouds14°C9 mph, SW77%10000m1011hPa73%
16-Jun-2024 09:00Overcast Clouds18°C11 mph, SW96%10000m1012hPa56%
16-Jun-2024 12:00Overcast Clouds21°C11 mph, SW85%10000m1012hPa44%
16-Jun-2024 15:00Light Rain19°C9 mph, SW84%10000m1012hPa69%
16-Jun-2024 18:00Light Rain17°C4 mph, SW59%10000m1013hPa82%
16-Jun-2024 21:00Few Clouds14°C4 mph, S16%10000m1015hPa90%
17-Jun-2024 00:00Scattered Clouds13°C7 mph, S33%10000m1015hPa91%
17-Jun-2024 03:00Broken Clouds12°C7 mph, SE75%10000m1015hPa94%
17-Jun-2024 06:00Broken Clouds15°C7 mph, S67%10000m1015hPa86%
17-Jun-2024 09:00Overcast Clouds21°C11 mph, SW100%10000m1015hPa60%
17-Jun-2024 12:00Light Rain22°C9 mph, SW100%10000m1015hPa68%
17-Jun-2024 15:00Light Rain22°C4 mph, SW100%10000m1014hPa68%
17-Jun-2024 18:00Light Rain19°C2 mph, SW100%10000m1015hPa86%
17-Jun-2024 21:00Broken Clouds16°C4 mph, SW71%10000m1016hPa94%
18-Jun-2024 00:00Broken Clouds15°C2 mph, W58%10000m1016hPa96%